Terminal Aerodrome Forecast
Issued by NWS Boston, MA

Home | Current Version | Previous Version | Text Only | Print | Product List | Glossary On
Versions: 1 2 3 4 5 6 7 8 9 10 11 12 13 14 15 16 17 18 19 20 21 22 23 24 25 26 27 28 29 30 31 32 33 34 35 36 37 38 39 40 41 42 43 44 45 46 47 48 49 50
000
FTUS41 KBOX 020905 AAB
TAFPVD
TAF AMD
KPVD 020905Z 0209/0306 19005KT 4SM BR BKN002
     FM021200 00000KT 6SM BR BKN008
     FM021400 21006KT P6SM SCT070
     FM021500 21007KT P6SM SCT080=

USA.gov is the U.S. government's official web portal to all federal, state and local government web resources and services.